ADDS METAR Data INFO
IDs: Format: Raw Decoded Include TAF

Data at: 0432 UTC 24 Apr 2018

KCDS 240353Z AUTO 12008KT 10SM CLR 17/06 A3005 RMK AO2 SLP160 T01670061
KCDS 240253Z AUTO 12008KT 10SM CLR 19/06 A3004 RMK AO2 SLP158 T01890061 53006
KCDS 240153Z AUTO 09006KT 10SM CLR 21/06 A3003 RMK AO2 SLP155 T02060061
KCDS 240053Z AUTO 08003KT 10SM CLR 24/07 A3002 RMK AO2 SLP151 T02390067
KCDS 232353Z AUTO 00000KT 10SM CLR 25/06 A3002 RMK AO2 SLP154 T02500061 10256 20206 56014
KCDS 232253Z AUTO 34005KT 10SM CLR 24/07 A3003 RMK AO2 SLP157 T02440067
KCDS 232153Z AUTO 01005KT 10SM CLR 26/07 A3005 RMK AO2 SLP161 T02560067
KCDS 232053Z AUTO VRB04KT 10SM CLR 24/07 A3006 RMK AO2 SLP167 T02390072 56027
KCDS 231953Z AUTO VRB03KT 10SM CLR 23/07 A3009 RMK AO2 SLP175 T02330072
KCDS 231853Z AUTO VRB03KT 10SM CLR 22/07 A3012 RMK AO2 SLP188 T02170067
KCDS 231753Z AUTO 36006KT 10SM CLR 21/07 A3015 RMK AO2 SLP197 T02060067 10206 20061 58013
KCDS 231653Z AUTO 10005KT 10SM CLR 19/07 A3018 RMK AO2 SLP206 T01940072
KCDS 231553Z AUTO 01009KT 10SM CLR 18/07 A3019 RMK AO2 SLP210 T01780067
KCDS 231453Z AUTO 36007KT 10SM CLR 14/08 A3019 RMK AO2 SLP212 T01440083 51006
KCDS 231353Z AUTO 34008KT 10SM CLR 12/07 A3019 RMK AO2 SLP212 T01170072
KCDS 231253Z AUTO 34005KT 10SM CLR 08/06 A3019 RMK AO2 SLP213 T00830061
KCDS 231153Z AUTO 33005KT 10SM CLR 06/05 A3017 RMK AO2 SLP208 T00610050 10111 20061 53009
KCDS 231053Z AUTO 34005KT 10SM CLR 06/04 A3015 RMK AO2 SLP203 T00610044
KCDS 230953Z AUTO 34005KT 10SM CLR 07/04 A3015 RMK AO2 SLP200 T00670044
KCDS 230853Z AUTO 35005KT 10SM CLR 08/05 A3014 RMK AO2 SLP197 T00780050 50000
KCDS 230753Z AUTO 02005KT 10SM CLR 10/06 A3014 RMK AO2 SLP197 T01000056
KCDS 230653Z AUTO 33006KT 10SM CLR 09/04 A3014 RMK AO2 SLP198 T00890044
KCDS 230553Z AUTO 34004KT 10SM CLR 10/04 A3014 RMK AO2 SLP199 T01000039 10200 20100 402000061 52010
KCDS 230453Z AUTO 01004KT 10SM CLR 12/04 A3012 RMK AO2 SLP192 T01220044
KCDS 230353Z AUTO 03004KT 10SM CLR 14/05 A3012 RMK AO2 SLP190 T01440050
KCDS 230253Z AUTO 05007KT 10SM CLR 15/04 A3011 RMK AO2 SLP185 T01500044 53006
KCDS 230153Z AUTO 34003KT 10SM CLR 16/03 A3010 RMK AO2 SLP184 T01560028
KCDS 230053Z AUTO 36007KT 10SM CLR 18/03 A3009 RMK AO2 SLP178 T01830028
KCDS 222353Z AUTO 32012KT 10SM CLR 19/03 A3009 RMK AO2 SLP178 T01940033 10200 20150 56008
KCDS 222253Z AUTO 32010KT 10SM CLR 19/03 A3009 RMK AO2 SLP178 T01940033
KCDS 222153Z AUTO 34013G19KT 10SM FEW060 19/03 A3009 RMK AO2 SLP180 T01940033
KCDS 222053Z AUTO 35015G19KT 10SM CLR 19/03 A3011 RMK AO2 SLP186 T01890033 58024
KCDS 221953Z AUTO 35016G21KT 10SM FEW049 18/04 A3015 RMK AO2 SLP199 T01780039
KCDS 221853Z AUTO 34013G23KT 310V020 10SM SCT045 17/04 A3017 RMK AO2 PK WND 35028/1759 SLP205 T01720044
KCDS 221753Z AUTO 36017G23KT 10SM FEW037 14/04 A3019 RMK AO2 SLP215 T01440039 10150 20078 58004
KCDS 221653Z AUTO 36020G25KT 10SM BKN034 13/04 A3020 RMK AO2 SLP221 T01330044